createdAt,value
2022-10-31T00:01:26.839Z,101711.60
2022-10-31T00:09:53.631Z,101710.14
2022-10-31T00:13:29.172Z,101709.73
2022-10-31T00:17:27.923Z,101707.10
2022-10-31T00:21:27.634Z,101706.90
2022-10-31T00:25:41.253Z,101709.80
2022-10-31T00:29:39.616Z,101708.27
2022-10-31T00:33:39.272Z,101707.31
2022-10-31T00:37:38.096Z,101707.26
2022-10-31T00:41:36.506Z,101711.14
2022-10-31T00:45:34.809Z,101709.77
2022-10-31T00:49:32.687Z,101707.25
2022-10-31T00:53:30.710Z,101707.84
2022-10-31T00:57:28.876Z,101714.25
2022-10-31T01:01:27.536Z,101716.92
2022-10-31T01:05:26.050Z,101718.52
2022-10-31T01:09:24.505Z,101712.95
2022-10-31T01:13:23.138Z,101708.95
2022-10-31T01:17:21.993Z,101705.63
2022-10-31T01:21:23.675Z,101707.27
2022-10-31T01:25:22.006Z,101710.48
2022-10-31T01:29:21.568Z,101706.84
2022-10-31T01:33:22.694Z,101706.90
2022-10-31T01:36:58.208Z,101708.85
2022-10-31T01:40:56.922Z,101712.20
2022-10-31T01:45:11.644Z,101718.86
2022-10-31T01:49:35.199Z,101721.51
2022-10-31T01:53:34.783Z,101715.36
2022-10-31T01:57:34.491Z,101714.82
2022-10-31T02:01:51.318Z,101721.83
2022-10-31T02:06:07.948Z,101713.92
2022-10-31T02:10:06.923Z,101713.55
2022-10-31T02:14:05.783Z,101725.45
2022-10-31T02:18:06.058Z,101725.08
2022-10-31T02:22:12.103Z,101728.60
2022-10-31T02:26:48.263Z,101736.17
2022-10-31T02:30:50.544Z,101740.75
2022-10-31T02:34:54.214Z,101744.09
2022-10-31T02:39:13.097Z,101744.13
2022-10-31T02:43:36.447Z,101748.17
2022-10-31T02:47:43.064Z,101746.67
2022-10-31T02:51:41.447Z,101745.39
2022-10-31T02:55:39.775Z,101749.86
2022-10-31T02:59:43.774Z,101749.54
2022-10-31T03:03:45.031Z,101749.80
2022-10-31T03:07:49.573Z,101757.44
2022-10-31T03:12:08.398Z,101759.77
2022-10-31T03:16:50.573Z,101759.55
2022-10-31T03:21:11.373Z,101761.16
2022-10-31T03:25:24.494Z,101759.75
2022-10-31T03:29:31.057Z,101756.25
2022-10-31T03:33:32.990Z,101754.66
2022-10-31T03:37:34.041Z,101757.11
2022-10-31T03:41:37.123Z,101760.11
2022-10-31T03:45:40.584Z,101755.02
2022-10-31T03:49:39.531Z,101757.27
2022-10-31T03:54:01.861Z,101748.70
2022-10-31T03:58:39.418Z,101743.98
2022-10-31T04:02:42.884Z,101742.94
2022-10-31T04:06:44.293Z,101741.44
2022-10-31T04:10:45.181Z,101736.56
2022-10-31T04:14:47.235Z,101744.19
2022-10-31T04:18:46.243Z,101745.45
2022-10-31T04:22:44.825Z,101742.14
2022-10-31T04:26:43.233Z,101740.41
2022-10-31T04:30:41.326Z,101737.08
2022-10-31T04:34:39.592Z,101737.42
2022-10-31T04:38:38.583Z,101732.33
2022-10-31T04:43:01.960Z,101724.45
2022-10-31T04:47:00.963Z,101721.80
2022-10-31T04:51:00.807Z,101716.33
2022-10-31T04:54:59.309Z,101721.56
2022-10-31T04:59:16.792Z,101713.84
2022-10-31T05:03:22.219Z,101710.30
2022-10-31T05:07:20.429Z,101709.73
2022-10-31T05:11:18.333Z,101706.04
2022-10-31T05:15:17.493Z,101705.14
2022-10-31T05:24:22.883Z,101718.48
2022-10-31T05:28:21.345Z,101725.32
2022-10-31T05:32:19.424Z,101731.30
2022-10-31T05:36:40.463Z,101731.64
2022-10-31T05:40:48.264Z,101737.77
2022-10-31T05:44:46.834Z,101745.13
2022-10-31T05:49:05.565Z,101748.10
2022-10-31T05:53:24.868Z,101750.54
2022-10-31T05:57:00.687Z,101751.26
2022-10-31T06:00:58.944Z,101754.05
2022-10-31T06:04:57.610Z,101757.76
2022-10-31T06:08:57.668Z,101757.40
2022-10-31T06:12:56.828Z,101753.22
2022-10-31T06:17:21.466Z,101755.50
2022-10-31T06:21:19.495Z,101758.51
2022-10-31T06:25:19.705Z,101767.65
2022-10-31T06:29:21.398Z,101780.52
2022-10-31T06:33:42.997Z,101780.36
2022-10-31T06:37:43.396Z,101780.58
2022-10-31T06:41:55.509Z,101782.21
2022-10-31T06:45:54.132Z,101773.09
2022-10-31T06:50:04.366Z,101773.76
2022-10-31T06:54:02.709Z,101784.45
2022-10-31T06:58:03.267Z,101785.70
2022-10-31T07:02:03.454Z,101793.31
2022-10-31T07:06:01.758Z,101796.80
2022-10-31T07:10:00.606Z,101792.42
2022-10-31T07:14:22.216Z,101797.16
2022-10-31T07:18:35.838Z,101801.91
2022-10-31T07:22:38.861Z,101806.86
2022-10-31T07:26:53.298Z,101811.85
2022-10-31T07:30:56.733Z,101816.61
2022-10-31T07:39:33.977Z,101809.16
2022-10-31T07:43:32.898Z,101813.23
2022-10-31T07:48:11.364Z,101813.05
2022-10-31T07:52:30.703Z,101824.48
2022-10-31T07:56:48.394Z,101820.30
2022-10-31T08:01:01.385Z,101822.46
2022-10-31T08:05:06.045Z,101828.58
2022-10-31T08:09:37.337Z,101830.48
2022-10-31T08:13:44.377Z,101835.73
2022-10-31T08:17:46.356Z,101836.94
2022-10-31T08:21:59.485Z,101835.13
2022-10-31T08:26:11.705Z,101833.36
2022-10-31T08:30:10.950Z,101833.02
2022-10-31T08:34:11.128Z,101830.73
2022-10-31T08:38:28.584Z,101829.70
2022-10-31T08:42:27.120Z,101845.71
2022-10-31T08:46:25.644Z,101843.27
2022-10-31T08:54:40.013Z,101835.83
2022-10-31T08:59:11.298Z,101839.31
2022-10-31T09:03:34.544Z,101838.75
2022-10-31T09:07:33.433Z,101836.98
2022-10-31T09:11:34.109Z,101832.29
2022-10-31T09:15:10.466Z,101826.70
2022-10-31T09:19:16.077Z,101822.36
2022-10-31T09:23:19.917Z,101824.16
2022-10-31T09:27:18.550Z,101825.59
2022-10-31T09:31:19.554Z,101821.57
2022-10-31T09:35:48.089Z,101825.27
2022-10-31T09:39:48.357Z,101823.73
2022-10-31T09:44:23.397Z,101824.09
2022-10-31T09:48:18.837Z,101823.22
2022-10-31T09:53:04.874Z,101830.45
2022-10-31T09:57:07.130Z,101835.55
2022-10-31T10:01:07.164Z,101835.02
2022-10-31T10:05:28.840Z,101841.84
2022-10-31T10:09:30.566Z,101842.02
2022-10-31T10:14:05.646Z,101839.06
2022-10-31T10:18:11.016Z,101834.34
2022-10-31T10:22:13.565Z,101835.94
2022-10-31T10:26:19.205Z,101831.94
2022-10-31T10:30:28.373Z,101821.76
2022-10-31T10:34:38.565Z,101830.55
2022-10-31T10:38:51.264Z,101825.48
2022-10-31T10:43:28.184Z,101826.69
2022-10-31T10:47:38.675Z,101834.44
2022-10-31T10:56:29.378Z,101826.75
2022-10-31T11:00:35.932Z,101827.80
2022-10-31T11:04:37.039Z,101833.11
2022-10-31T11:08:37.042Z,101834.35
2022-10-31T11:13:21.511Z,101829.26
2022-10-31T11:17:41.811Z,101820.81
2022-10-31T11:21:40.092Z,101817.98
2022-10-31T11:26:04.002Z,101813.59
2022-10-31T11:34:34.166Z,101815.88
2022-10-31T11:38:42.332Z,101819.25
2022-10-31T11:42:42.781Z,101818.58
2022-10-31T11:47:00.153Z,101821.58
2022-10-31T11:51:00.012Z,101822.11
2022-10-31T11:55:04.048Z,101823.73
2022-10-31T11:58:36.014Z,101829.73
2022-10-31T12:02:34.864Z,101830.31
2022-10-31T12:06:38.795Z,101835.45
2022-10-31T12:11:04.926Z,101831.45
2022-10-31T12:15:22.268Z,101831.64
2022-10-31T12:19:39.455Z,101832.54
2022-10-31T12:23:49.635Z,101831.69
2022-10-31T12:28:10.790Z,101822.03
2022-10-31T12:32:30.300Z,101821.86
2022-10-31T12:36:51.129Z,101819.22
2022-10-31T12:41:09.518Z,101815.52
2022-10-31T12:45:13.414Z,101814.32
2022-10-31T12:49:53.835Z,101815.05
2022-10-31T12:54:14.646Z,101813.89
2022-10-31T12:58:37.988Z,101809.52
2022-10-31T13:02:54.889Z,101807.94
2022-10-31T13:07:03.397Z,101810.07
2022-10-31T13:11:19.668Z,101798.14
2022-10-31T13:15:40.428Z,101805.02
2022-10-31T13:19:46.329Z,101805.55
2022-10-31T13:23:51.776Z,101803.63
2022-10-31T13:28:30.949Z,101811.17
2022-10-31T13:32:50.110Z,101811.36
2022-10-31T13:37:18.775Z,101815.06
2022-10-31T13:41:34.761Z,101816.65
2022-10-31T13:45:55.390Z,101812.44
2022-10-31T13:50:07.112Z,101811.58
2022-10-31T13:54:23.234Z,101817.20
2022-10-31T13:58:30.927Z,101817.78
2022-10-31T14:02:36.957Z,101814.96
2022-10-31T14:06:39.223Z,101815.88
2022-10-31T14:10:48.077Z,101820.84
2022-10-31T14:15:20.118Z,101824.20
2022-10-31T14:19:21.070Z,101818.80
2022-10-31T14:23:31.515Z,101817.77
2022-10-31T14:27:29.805Z,101822.70
2022-10-31T14:31:42.603Z,101819.01
2022-10-31T14:36:42.759Z,101816.02
2022-10-31T14:41:40.998Z,101809.34
2022-10-31T14:45:03.845Z,101812.16
2022-10-31T14:49:24.317Z,101805.88
2022-10-31T14:53:29.335Z,101804.40
2022-10-31T14:58:06.021Z,101804.58
2022-10-31T15:02:35.772Z,101807.20
2022-10-31T15:06:43.755Z,101804.77
2022-10-31T15:10:47.078Z,101809.16
2022-10-31T15:14:44.718Z,101805.80
2022-10-31T15:19:05.562Z,101811.59
2022-10-31T15:23:03.806Z,101815.29
2022-10-31T15:27:05.121Z,101809.30
2022-10-31T15:31:22.842Z,101806.48
2022-10-31T15:35:26.956Z,101811.05
2022-10-31T15:39:25.408Z,101812.62
2022-10-31T15:43:24.296Z,101817.34
2022-10-31T15:47:27.363Z,101822.23
2022-10-31T15:51:32.823Z,101824.65
2022-10-31T15:56:01.777Z,101829.20
2022-10-31T16:00:28.543Z,101827.05
2022-10-31T16:04:50.782Z,101825.10
2022-10-31T16:09:05.059Z,101822.09
2022-10-31T16:13:17.356Z,101819.44
2022-10-31T16:17:17.856Z,101816.83
2022-10-31T16:21:36.599Z,101817.89
2022-10-31T16:25:39.474Z,101825.27
2022-10-31T16:29:40.917Z,101825.27
2022-10-31T16:33:41.602Z,101824.86
2022-10-31T16:37:55.074Z,101830.83
2022-10-31T16:41:58.411Z,101829.21
2022-10-31T16:45:57.458Z,101828.52
2022-10-31T16:50:01.171Z,101824.64
2022-10-31T16:54:00.488Z,101831.15
2022-10-31T16:58:01.321Z,101825.35
2022-10-31T17:02:01.466Z,101825.90
2022-10-31T17:06:01.005Z,101823.45
2022-10-31T17:10:00.009Z,101819.05
2022-10-31T17:13:59.229Z,101817.47
2022-10-31T17:17:58.055Z,101822.05
2022-10-31T17:21:56.602Z,101823.96
2022-10-31T17:25:56.165Z,101819.75
2022-10-31T17:29:54.791Z,101815.88
2022-10-31T17:34:01.797Z,101817.63
2022-10-31T17:38:02.598Z,101821.49
2022-10-31T17:42:01.270Z,101832.94
2022-10-31T17:46:00.979Z,101840.84
2022-10-31T17:49:58.863Z,101846.13
2022-10-31T17:53:58.513Z,101847.88
2022-10-31T17:57:57.095Z,101840.33
2022-10-31T18:01:55.727Z,101847.19
2022-10-31T18:05:59.288Z,101847.02
2022-10-31T18:09:58.036Z,101842.95
2022-10-31T18:13:58.162Z,101842.98
2022-10-31T18:17:56.315Z,101837.50
2022-10-31T18:21:54.915Z,101832.59
2022-10-31T18:25:54.689Z,101833.09
2022-10-31T18:29:53.793Z,101837.66
2022-10-31T18:34:05.956Z,101838.02
2022-10-31T18:38:06.435Z,101835.24
2022-10-31T18:42:05.497Z,101833.12
2022-10-31T18:46:06.909Z,101839.27
2022-10-31T18:50:06.423Z,101836.98
2022-10-31T18:54:06.606Z,101846.66
2022-10-31T18:58:06.473Z,101849.95
2022-10-31T19:02:15.407Z,101847.89
2022-10-31T19:06:15.525Z,101843.41
2022-10-31T19:10:14.070Z,101843.58
2022-10-31T19:14:15.157Z,101843.73
2022-10-31T19:18:15.449Z,101842.83
2022-10-31T19:21:51.877Z,101841.19
2022-10-31T19:25:50.239Z,101837.95
2022-10-31T19:29:49.255Z,101838.05
2022-10-31T19:33:48.309Z,101839.77
2022-10-31T19:38:00.827Z,101839.70
2022-10-31T19:41:59.882Z,101835.27
2022-10-31T19:46:22.357Z,101831.17
2022-10-31T19:50:32.121Z,101832.52
2022-10-31T19:54:32.207Z,101837.06
2022-10-31T19:58:33.029Z,101837.60
2022-10-31T20:02:45.549Z,101835.81
2022-10-31T20:06:57.689Z,101832.30
2022-10-31T20:10:57.256Z,101832.28
2022-10-31T20:14:56.310Z,101836.48
2022-10-31T20:18:56.821Z,101835.62
2022-10-31T20:22:55.399Z,101824.73
2022-10-31T20:26:54.117Z,101821.06
2022-10-31T20:31:18.515Z,101820.71
2022-10-31T20:35:17.757Z,101815.98
2022-10-31T20:39:16.548Z,101818.79
2022-10-31T20:43:16.743Z,101816.31
2022-10-31T20:47:15.147Z,101814.20
2022-10-31T20:55:15.871Z,101813.70
2022-10-31T20:59:15.469Z,101810.18
2022-10-31T21:03:27.617Z,101811.23
2022-10-31T21:07:26.498Z,101820.71
2022-10-31T21:11:27.353Z,101819.48
2022-10-31T21:15:39.651Z,101814.75
2022-10-31T21:19:37.969Z,101808.40
2022-10-31T21:23:37.198Z,101808.92
2022-10-31T21:27:35.704Z,101804.86
2022-10-31T21:31:36.328Z,101804.47
2022-10-31T21:35:35.030Z,101806.92
2022-10-31T21:39:33.929Z,101808.67
2022-10-31T21:43:36.289Z,101809.02
2022-10-31T21:47:34.959Z,101809.91
2022-10-31T21:51:36.515Z,101804.29
2022-10-31T21:55:34.419Z,101796.04
2022-10-31T21:59:32.929Z,101796.22
2022-10-31T22:03:45.256Z,101795.52
2022-10-31T22:07:43.992Z,101797.27
2022-10-31T22:11:43.723Z,101796.39
2022-10-31T22:15:41.723Z,101787.96
2022-10-31T22:19:54.682Z,101784.10
2022-10-31T22:24:01.894Z,101782.70
2022-10-31T22:28:08.097Z,101780.58
2022-10-31T22:32:06.785Z,101779.20
2022-10-31T22:36:09.070Z,101782.54
2022-10-31T22:40:08.542Z,101783.58
2022-10-31T22:44:06.748Z,101780.06
2022-10-31T22:48:05.629Z,101788.48
2022-10-31T22:52:19.932Z,101787.79
2022-10-31T22:56:21.649Z,101784.80
2022-10-31T23:00:24.155Z,101781.46
2022-10-31T23:03:58.688Z,101783.85
2022-10-31T23:07:56.889Z,101783.04
2022-10-31T23:12:15.436Z,101777.42
2022-10-31T23:16:14.350Z,101777.07
2022-10-31T23:20:12.516Z,101774.42
2022-10-31T23:24:12.416Z,101776.55
2022-10-31T23:28:11.000Z,101780.58
2022-10-31T23:32:35.530Z,101780.74
2022-10-31T23:36:48.571Z,101775.98
2022-10-31T23:41:00.759Z,101772.13
2022-10-31T23:45:12.475Z,101771.58
2022-10-31T23:49:24.898Z,101771.05
2022-10-31T23:53:23.743Z,101767.36
2022-10-31T23:57:22.137Z,101764.00
